Search for airport 
image banner adimage banner adimage banner ad
image banner ad

7CL9 - Perryman

Located in Placerville, United States

ICAO - 7CL9, IATA -

Data provided by Airmate  

General information

Coordinates: N38°41'47" W120°43'53"
Elevation is 2600 feet MSL.
Magnetic variation is 16° East
View others Airports in California

Operational data

Special qualification required
Current time UTC:
Current local time:
Weather at : KPVF - Placerville ( 4 km )
METAR: KPVF 240835Z AUTO 06009KT 10SM CLR 19/09 A3002 RMK AO1
View NOTAMs / SUP AIP / TFR affecting this airport [VIEW]
Communications frequencies: [VIEW]

Runways:

RWY identifierQFULength (ft)Width (ft)SurfaceLDA (ft)
082000100GRASS
262000100GRASS

Airport contact information

Address: Placerville United States

Satellite view of 7CL9